createdAt,value
2018-11-28T00:00:11.529Z,100865.44
2018-11-28T00:02:39.206Z,100869.72
2018-11-28T00:05:10.949Z,100865.48
2018-11-28T00:07:38.933Z,100874.50
2018-11-28T00:10:12.045Z,100876.25
2018-11-28T00:12:39.922Z,100877.06
2018-11-28T00:15:11.680Z,100871.97
2018-11-28T00:17:39.358Z,100879.23
2018-11-28T00:20:09.898Z,100878.81
2018-11-28T00:22:37.729Z,100884.87
2018-11-28T00:25:06.689Z,100886.12
2018-11-28T00:27:34.420Z,100890.00
2018-11-28T00:30:02.229Z,100871.64
2018-11-28T00:32:29.879Z,100882.77
2018-11-28T00:34:57.551Z,100883.19
2018-11-28T00:37:25.280Z,100884.50
2018-11-28T00:39:59.726Z,100887.95
2018-11-28T00:42:30.111Z,100890.59
2018-11-28T00:44:58.270Z,100890.59
2018-11-28T00:47:26.045Z,100889.70
2018-11-28T00:49:53.910Z,100888.88
2018-11-28T00:52:21.693Z,100893.17
2018-11-28T00:54:49.543Z,100895.29
2018-11-28T00:57:17.198Z,100889.76
2018-11-28T00:59:44.808Z,100889.33
2018-11-28T01:02:12.575Z,100891.05
2018-11-28T01:04:40.225Z,100896.20
2018-11-28T01:07:07.940Z,100892.77
2018-11-28T01:09:35.569Z,100892.77
2018-11-28T01:12:03.293Z,100888.92
2018-11-28T01:14:31.006Z,100897.42
2018-11-28T01:16:58.692Z,100898.30
2018-11-28T01:19:26.412Z,100893.63
2018-11-28T01:21:54.153Z,100894.03
2018-11-28T01:24:21.804Z,100902.59
2018-11-28T01:26:49.470Z,100903.88
2018-11-28T01:29:17.129Z,100907.32
2018-11-28T01:31:44.733Z,100909.44
2018-11-28T01:34:12.434Z,100902.60
2018-11-28T01:36:40.142Z,100903.02
2018-11-28T01:39:07.880Z,100900.89
2018-11-28T01:41:35.574Z,100903.88
2018-11-28T01:44:03.241Z,100909.00
2018-11-28T01:46:31.041Z,100907.30
2018-11-28T01:48:58.700Z,100901.31
2018-11-28T01:51:26.322Z,100909.41
2018-11-28T01:53:53.987Z,100907.31
2018-11-28T01:56:21.730Z,100907.73
2018-11-28T01:58:49.857Z,100915.44
2018-11-28T02:01:17.588Z,100906.47
2018-11-28T02:03:45.230Z,100909.89
2018-11-28T02:06:12.912Z,100907.76
2018-11-28T02:08:40.601Z,100916.73
2018-11-28T02:11:08.339Z,100909.47
2018-11-28T02:13:36.082Z,100906.48
2018-11-28T02:16:03.839Z,100907.78
2018-11-28T02:18:31.530Z,100913.31
2018-11-28T02:20:59.278Z,100912.91
2018-11-28T02:23:27.037Z,100916.34
2018-11-28T02:25:54.723Z,100918.46
2018-11-28T02:28:22.533Z,100916.77
2018-11-28T02:30:50.272Z,100920.16
2018-11-28T02:33:17.950Z,100917.17
2018-11-28T02:35:45.679Z,100919.32
2018-11-28T02:38:13.360Z,100921.44
2018-11-28T02:40:41.052Z,100929.59
2018-11-28T02:43:08.891Z,100937.70
2018-11-28T02:45:36.835Z,100932.13
2018-11-28T02:48:05.384Z,100936.81
2018-11-28T02:50:33.495Z,100933.86
2018-11-28T02:53:01.153Z,100941.09
2018-11-28T02:55:28.913Z,100944.94
2018-11-28T02:57:56.631Z,100939.39
2018-11-28T03:00:25.319Z,100940.23
2018-11-28T03:02:53.234Z,100941.07
2018-11-28T03:05:21.081Z,100947.92
2018-11-28T03:07:48.843Z,100953.88
2018-11-28T03:10:18.894Z,100955.17
2018-11-28T03:12:46.671Z,100951.75
2018-11-28T03:15:22.134Z,100952.63
2018-11-28T03:17:49.872Z,100955.20
2018-11-28T03:20:17.668Z,100960.77
2018-11-28T03:22:45.317Z,100956.05
2018-11-28T03:25:13.029Z,100947.51
2018-11-28T03:27:40.704Z,100951.80
2018-11-28T03:30:14.173Z,100953.92
2018-11-28T03:32:41.828Z,100953.08
2018-11-28T03:35:14.567Z,100959.89
2018-11-28T03:37:42.553Z,100961.18
2018-11-28T03:40:10.527Z,100960.76
2018-11-28T03:42:38.271Z,100957.78
2018-11-28T03:45:11.177Z,100968.45
2018-11-28T03:47:39.017Z,100965.45
2018-11-28T03:50:09.102Z,100974.42
2018-11-28T03:52:37.790Z,100975.69
2018-11-28T03:55:08.886Z,100974.84
2018-11-28T03:57:36.554Z,100979.96
2018-11-28T04:00:09.360Z,100980.83
2018-11-28T04:02:37.098Z,100987.66
2018-11-28T04:05:05.341Z,100986.36
2018-11-28T04:07:33.181Z,100988.95
2018-11-28T04:10:00.862Z,100987.20
2018-11-28T04:12:28.589Z,100990.64
2018-11-28T04:14:56.265Z,100991.07
2018-11-28T04:17:23.914Z,100992.77
2018-11-28T04:19:51.717Z,100989.77
2018-11-28T04:22:19.446Z,100990.20
2018-11-28T04:24:47.086Z,100996.16
2018-11-28T04:27:15.700Z,100990.62
2018-11-28T04:29:44.274Z,100994.89
2018-11-28T04:32:12.011Z,100999.59
2018-11-28T04:34:39.647Z,101005.98
2018-11-28T04:37:07.387Z,101003.88
2018-11-28T04:39:35.165Z,100999.59
2018-11-28T04:42:02.907Z,101000.45
2018-11-28T04:44:30.704Z,101001.30
2018-11-28T04:46:58.430Z,101004.72
2018-11-28T04:49:26.150Z,101011.55
2018-11-28T04:52:00.603Z,101006.85
2018-11-28T04:54:29.485Z,101003.44
2018-11-28T04:56:57.157Z,101007.24
2018-11-28T04:59:24.869Z,101006.85
2018-11-28T05:01:52.636Z,101015.37
2018-11-28T05:04:20.500Z,101016.63
2018-11-28T05:07:52.217Z,101014.92
2018-11-28T05:10:23.008Z,101015.29
2018-11-28T05:12:51.502Z,101014.43
2018-11-28T05:15:23.602Z,101021.66
2018-11-28T05:17:53.423Z,101024.23
2018-11-28T05:20:21.974Z,101028.05
2018-11-28T05:22:49.871Z,101027.61
2018-11-28T05:25:19.860Z,101020.80
2018-11-28T05:27:48.560Z,101018.64
2018-11-28T05:30:24.681Z,101023.77
2018-11-28T05:32:52.401Z,101022.91
2018-11-28T05:35:24.935Z,101030.63
2018-11-28T05:37:53.209Z,101035.29
2018-11-28T05:40:26.298Z,101028.45
2018-11-28T05:42:54.432Z,101028.48
2018-11-28T05:45:22.550Z,101033.12
2018-11-28T05:47:50.241Z,101029.72
2018-11-28T05:50:20.192Z,101030.14
2018-11-28T05:52:47.946Z,101036.95
2018-11-28T05:55:17.279Z,101038.29
2018-11-28T05:57:45.079Z,101027.16
2018-11-28T06:00:22.765Z,101032.77
2018-11-28T06:02:50.488Z,101037.03
2018-11-28T06:05:18.205Z,101040.44
2018-11-28T06:07:45.913Z,101040.00
2018-11-28T06:10:13.631Z,101037.91
2018-11-28T06:12:43.787Z,101040.87
2018-11-28T06:15:12.237Z,101048.55
2018-11-28T06:17:39.964Z,101047.23
2018-11-28T06:20:13.779Z,101052.38
2018-11-28T06:22:42.184Z,101052.38
2018-11-28T06:25:17.990Z,101050.64
2018-11-28T06:27:51.683Z,101054.50
2018-11-28T06:30:20.061Z,101058.74
2018-11-28T06:32:51.306Z,101063.87
2018-11-28T06:35:15.547Z,101062.58
2018-11-28T06:37:43.559Z,101071.98
2018-11-28T06:40:14.485Z,101065.17
2018-11-28T06:42:43.343Z,101066.88
2018-11-28T06:45:13.140Z,101071.56
2018-11-28T06:47:41.899Z,101082.20
2018-11-28T06:50:13.408Z,101076.70
2018-11-28T06:52:41.717Z,101076.23
2018-11-28T06:55:14.281Z,101073.30
2018-11-28T06:57:42.194Z,101074.57
2018-11-28T07:00:15.689Z,101085.72
2018-11-28T07:02:45.322Z,101080.61
2018-11-28T07:05:13.823Z,101081.06
2018-11-28T07:07:41.635Z,101086.17
2018-11-28T07:10:11.343Z,101091.72
2018-11-28T07:12:40.389Z,101089.61
2018-11-28T07:15:11.669Z,101089.20
2018-11-28T07:17:40.262Z,101092.20
2018-11-28T07:20:12.250Z,101094.37
2018-11-28T07:22:40.001Z,101091.77
2018-11-28T07:25:09.710Z,101087.95
2018-11-28T07:27:37.468Z,101091.42
2018-11-28T07:30:13.522Z,101078.19
2018-11-28T07:32:41.997Z,101090.58
2018-11-28T07:35:10.766Z,101081.20
2018-11-28T07:37:38.583Z,101084.64
2018-11-28T07:40:15.697Z,101089.33
2018-11-28T07:42:48.726Z,101100.03
2018-11-28T07:45:16.461Z,101094.03
2018-11-28T07:47:44.225Z,101098.71
2018-11-28T07:50:13.118Z,101094.02
2018-11-28T07:52:40.803Z,101097.44
2018-11-28T07:55:11.712Z,101101.67
2018-11-28T07:57:39.604Z,101103.78
2018-11-28T08:00:13.253Z,101103.31
2018-11-28T08:02:41.753Z,101099.48
2018-11-28T08:05:10.862Z,101097.30
2018-11-28T08:07:39.375Z,101091.72
2018-11-28T08:10:16.654Z,101092.94
2018-11-28T08:12:44.407Z,101097.14
2018-11-28T08:15:12.142Z,101094.94
2018-11-28T08:17:39.829Z,101097.90
2018-11-28T08:20:07.622Z,101104.33
2018-11-28T08:22:36.222Z,101103.75
2018-11-28T08:25:03.483Z,101104.56
2018-11-28T08:27:31.000Z,101098.48
2018-11-28T08:29:58.698Z,101102.28
2018-11-28T08:32:26.447Z,101101.23
2018-11-28T08:34:54.205Z,101102.83
2018-11-28T08:37:21.912Z,101110.02
2018-11-28T08:39:49.678Z,101104.93
2018-11-28T08:42:17.490Z,101103.73
2018-11-28T08:44:45.194Z,101106.25
2018-11-28T08:47:12.988Z,101109.96
2018-11-28T08:49:40.686Z,101106.09
2018-11-28T08:52:08.382Z,101109.56
2018-11-28T08:54:36.127Z,101112.77
2018-11-28T08:57:04.200Z,101113.76
2018-11-28T08:59:31.668Z,101112.78
2018-11-28T09:01:59.353Z,101118.22
2018-11-28T09:04:27.124Z,101119.88
2018-11-28T09:06:54.905Z,101126.67
2018-11-28T09:09:22.743Z,101127.68
2018-11-28T09:11:50.412Z,101117.01
2018-11-28T09:14:18.101Z,101123.81
2018-11-28T09:16:45.898Z,101116.91
2018-11-28T09:19:13.609Z,101115.13
2018-11-28T09:21:41.290Z,101114.13
2018-11-28T09:24:09.055Z,101119.09
2018-11-28T09:26:36.765Z,101118.22
2018-11-28T09:29:05.689Z,101115.50
2018-11-28T09:31:33.374Z,101112.93
2018-11-28T09:34:01.825Z,101110.89
2018-11-28T09:36:29.568Z,101113.41
2018-11-28T09:38:57.962Z,101111.78
2018-11-28T09:41:25.682Z,101111.52
2018-11-28T09:43:53.418Z,101108.88
2018-11-28T09:46:21.199Z,101101.17
2018-11-28T09:48:48.938Z,101105.85
2018-11-28T09:51:16.649Z,101107.48
2018-11-28T09:53:44.330Z,101100.53
2018-11-28T09:56:12.049Z,101101.31
2018-11-28T09:58:39.725Z,101100.31
2018-11-28T10:01:07.970Z,101099.44
2018-11-28T10:03:35.690Z,101103.89
2018-11-28T10:06:03.556Z,101095.66
2018-11-28T10:08:31.251Z,101098.98
2018-11-28T10:10:59.105Z,101100.94
2018-11-28T10:13:27.043Z,101095.94
2018-11-28T10:15:54.608Z,101092.00
2018-11-28T10:18:22.431Z,101097.72
2018-11-28T10:20:50.144Z,101087.42
2018-11-28T10:23:17.887Z,101091.13
2018-11-28T10:25:45.663Z,101090.03
2018-11-28T10:28:13.379Z,101083.41
2018-11-28T10:30:41.109Z,101079.26
2018-11-28T10:33:11.252Z,101085.64
2018-11-28T10:35:40.034Z,101071.94
2018-11-28T10:38:07.873Z,101080.99
2018-11-28T10:40:36.428Z,101080.41
2018-11-28T10:43:05.039Z,101085.41
2018-11-28T10:45:32.889Z,101088.98
2018-11-28T10:48:00.694Z,101085.89
2018-11-28T10:50:28.553Z,101094.21
2018-11-28T10:52:56.299Z,101094.87
2018-11-28T10:55:25.272Z,101081.74
2018-11-28T10:57:52.980Z,101083.44
2018-11-28T11:00:32.900Z,101080.52
2018-11-28T11:03:12.292Z,101080.23
2018-11-28T11:05:46.702Z,101073.45
2018-11-28T11:08:20.175Z,101074.98
2018-11-28T11:10:53.727Z,101080.19
2018-11-28T11:13:27.289Z,101071.81
2018-11-28T11:15:58.631Z,101074.31
2018-11-28T11:18:27.470Z,101078.09
2018-11-28T11:20:55.136Z,101066.90
2018-11-28T11:23:22.943Z,101072.44
2018-11-28T11:25:51.205Z,101068.38
2018-11-28T11:28:19.363Z,101072.11
2018-11-28T11:30:47.290Z,101075.59
2018-11-28T11:33:15.248Z,101071.80
2018-11-28T11:35:43.003Z,101078.72
2018-11-28T11:38:10.788Z,101072.52
2018-11-28T11:40:38.569Z,101068.25
2018-11-28T11:43:06.784Z,101071.70
2018-11-28T11:45:34.660Z,101061.19
2018-11-28T11:48:02.423Z,101063.58
2018-11-28T11:50:30.211Z,101062.33
2018-11-28T11:52:57.933Z,101061.05
2018-11-28T11:55:25.644Z,101057.39
2018-11-28T11:57:53.613Z,101056.34
2018-11-28T12:00:24.492Z,101060.34
2018-11-28T12:03:02.522Z,101057.78
2018-11-28T12:05:30.221Z,101060.11
2018-11-28T12:07:57.919Z,101058.72
2018-11-28T12:10:26.481Z,101053.20
2018-11-28T12:12:54.267Z,101051.08
2018-11-28T12:15:22.036Z,101049.53
2018-11-28T12:17:49.899Z,101052.25
2018-11-28T12:20:23.158Z,101056.98
2018-11-28T12:22:50.832Z,101053.94
2018-11-28T12:25:18.531Z,101048.97
2018-11-28T12:27:46.512Z,101040.97
2018-11-28T12:30:14.921Z,101038.34
2018-11-28T12:32:43.393Z,101046.23
2018-11-28T12:35:19.184Z,101046.85
2018-11-28T12:37:47.022Z,101048.31
2018-11-28T12:40:16.150Z,101038.55
2018-11-28T12:42:49.197Z,101045.47
2018-11-28T12:45:18.266Z,101044.14
2018-11-28T12:47:46.834Z,101049.90
2018-11-28T12:50:23.091Z,101046.03
2018-11-28T12:52:51.833Z,101032.70
2018-11-28T12:55:20.163Z,101038.78
2018-11-28T12:57:47.983Z,101035.55
2018-11-28T13:00:21.169Z,101038.56
2018-11-28T13:02:48.958Z,101040.37
2018-11-28T13:05:20.231Z,101032.72
2018-11-28T13:07:48.042Z,101025.98
2018-11-28T13:10:23.463Z,101026.48
2018-11-28T13:12:51.424Z,101024.53
2018-11-28T13:15:20.495Z,101027.16
2018-11-28T13:17:48.158Z,101032.39
2018-11-28T13:20:17.525Z,101026.70
2018-11-28T13:22:46.721Z,101025.69
2018-11-28T13:25:16.325Z,101017.53
2018-11-28T13:27:44.103Z,101013.98
2018-11-28T13:30:14.474Z,101009.23
2018-11-28T13:32:43.904Z,101005.88
2018-11-28T13:35:13.205Z,101008.02
2018-11-28T13:37:42.209Z,101008.17
2018-11-28T13:40:14.445Z,101008.49
2018-11-28T13:42:42.277Z,101014.72
2018-11-28T13:45:13.815Z,101004.94
2018-11-28T13:47:43.084Z,101003.13
2018-11-28T13:50:11.174Z,101003.57
2018-11-28T13:52:38.896Z,100999.55
2018-11-28T13:57:46.543Z,100997.70
2018-11-28T14:00:14.242Z,100998.32
2018-11-28T14:02:42.029Z,100992.10
2018-11-28T14:05:11.571Z,101000.30
2018-11-28T14:07:39.266Z,100999.75
2018-11-28T14:10:10.857Z,100998.01
2018-11-28T14:12:38.585Z,100991.50
2018-11-28T14:15:18.232Z,100996.89
2018-11-28T14:17:58.695Z,100994.70
2018-11-28T14:20:26.532Z,100998.58
2018-11-28T14:22:54.336Z,100994.39
2018-11-28T14:25:22.030Z,101000.22
2018-11-28T14:27:49.784Z,101003.30
2018-11-28T14:30:20.022Z,101001.63
2018-11-28T14:32:48.038Z,101005.33
2018-11-28T14:35:15.990Z,101006.30
2018-11-28T14:37:44.157Z,101012.46
2018-11-28T14:40:18.806Z,101008.43
2018-11-28T14:42:49.146Z,101005.13
2018-11-28T14:45:18.242Z,101001.72
2018-11-28T14:47:46.814Z,101005.56
2018-11-28T14:50:17.005Z,101007.09
2018-11-28T14:52:44.936Z,101006.22
2018-11-28T14:55:15.687Z,101008.98
2018-11-28T14:57:43.406Z,101009.69
2018-11-28T15:00:20.752Z,101012.52
2018-11-28T15:02:53.314Z,101010.50
2018-11-28T15:06:06.294Z,101021.49
2018-11-28T15:08:34.107Z,101017.11
2018-11-28T15:11:08.130Z,101016.66
2018-11-28T15:13:36.934Z,101016.53
2018-11-28T15:16:05.128Z,101016.44
2018-11-28T15:18:32.857Z,101004.66
2018-11-28T15:21:00.549Z,101006.11
2018-11-28T15:23:28.230Z,101011.72
2018-11-28T15:25:55.930Z,101004.67
2018-11-28T15:28:23.731Z,101000.29
2018-11-28T15:30:51.514Z,100999.67
2018-11-28T15:33:19.248Z,101001.82
2018-11-28T15:35:46.938Z,101004.61
2018-11-28T15:38:14.726Z,100995.20
2018-11-28T15:40:42.474Z,101006.52
2018-11-28T15:43:10.218Z,100999.37
2018-11-28T15:45:37.925Z,100994.20
2018-11-28T15:48:06.106Z,101000.69
2018-11-28T15:50:33.901Z,101001.74
2018-11-28T15:53:01.628Z,101008.84
2018-11-28T15:55:29.753Z,101005.05
2018-11-28T15:57:57.434Z,101008.64
2018-11-28T16:00:26.137Z,101012.29
2018-11-28T16:02:54.135Z,101019.61
2018-11-28T16:05:21.919Z,101012.99
2018-11-28T16:07:49.686Z,101014.65
2018-11-28T16:10:49.640Z,101020.00
2018-11-28T16:13:18.328Z,101013.64
2018-11-28T16:15:51.275Z,101015.58
2018-11-28T16:18:18.994Z,101016.53
2018-11-28T16:20:46.699Z,101000.67
2018-11-28T16:23:14.464Z,101006.78
2018-11-28T16:25:42.170Z,101004.70
2018-11-28T16:28:09.968Z,100992.58
2018-11-28T16:30:37.736Z,100995.34
2018-11-28T16:33:06.629Z,100993.73
2018-11-28T16:35:35.464Z,101002.84
2018-11-28T16:38:03.535Z,101009.39
2018-11-28T16:40:31.311Z,100998.97
2018-11-28T16:42:59.063Z,101002.16
2018-11-28T16:45:26.887Z,101006.50
2018-11-28T16:47:57.580Z,101013.91
2018-11-28T16:50:25.425Z,101012.22
2018-11-28T16:52:55.218Z,101010.19
2018-11-28T16:55:22.948Z,101006.73
2018-11-28T16:57:52.513Z,101015.77
2018-11-28T17:00:24.595Z,101011.61
2018-11-28T17:02:54.402Z,101011.25
2018-11-28T17:05:22.717Z,101010.33
2018-11-28T17:07:51.075Z,101020.59
2018-11-28T17:10:25.704Z,101015.92
2018-11-28T17:12:55.896Z,101013.11
2018-11-28T17:15:23.707Z,101012.05
2018-11-28T17:17:51.477Z,101017.88
2018-11-28T17:20:22.264Z,101019.58
2018-11-28T17:22:51.743Z,101016.23
2018-11-28T17:25:25.386Z,101024.50
2018-11-28T17:27:53.881Z,101029.66
2018-11-28T17:30:24.674Z,101025.45
2018-11-28T17:32:53.531Z,101028.41
2018-11-28T17:35:21.285Z,101016.12
2018-11-28T17:37:49.207Z,101008.91
2018-11-28T17:40:19.539Z,101004.94
2018-11-28T17:42:49.620Z,101009.64
2018-11-28T17:45:18.185Z,101010.53
2018-11-28T17:47:45.937Z,101013.20
2018-11-28T17:50:21.728Z,101009.31
2018-11-28T17:53:07.345Z,101014.04
2018-11-28T17:55:44.536Z,101011.25
2018-11-28T17:58:13.330Z,101008.94
2018-11-28T18:00:41.112Z,101007.20
2018-11-28T18:03:09.508Z,101005.77
2018-11-28T18:05:37.329Z,101010.41
2018-11-28T18:08:05.286Z,101006.87
2018-11-28T18:10:33.023Z,101005.69
2018-11-28T18:13:12.707Z,101001.80
2018-11-28T18:15:43.577Z,101001.58
2018-11-28T18:18:13.250Z,101004.59
2018-11-28T18:20:41.695Z,100996.06
2018-11-28T18:23:10.136Z,100995.27
2018-11-28T18:25:39.222Z,100992.65
2018-11-28T18:30:30.307Z,100998.95
2018-11-28T18:32:58.122Z,100997.22
2018-11-28T18:35:27.241Z,100996.44
2018-11-28T18:37:55.052Z,100993.05
2018-11-28T18:40:22.753Z,100993.05
2018-11-28T18:42:50.452Z,100996.97
2018-11-28T18:45:20.841Z,100994.83
2018-11-28T18:47:49.135Z,100996.63
2018-11-28T18:50:19.034Z,100998.30
2018-11-28T18:52:46.763Z,101004.30
2018-11-28T18:55:19.790Z,100995.35
2018-11-28T18:57:54.601Z,100995.80
2018-11-28T19:00:24.834Z,100995.36
2018-11-28T19:02:54.536Z,100988.91
2018-11-28T19:05:22.221Z,100984.20
2018-11-28T19:07:54.824Z,100990.98
2018-11-28T19:10:26.411Z,100992.35
2018-11-28T19:12:53.338Z,100993.53
2018-11-28T19:15:27.972Z,101001.09
2018-11-28T19:17:56.909Z,100988.54
2018-11-28T19:20:25.677Z,100990.27
2018-11-28T19:22:54.848Z,100993.27
2018-11-28T19:25:24.907Z,101000.13
2018-11-28T19:27:53.613Z,101001.89
2018-11-28T19:30:38.432Z,100998.52
2018-11-28T19:33:09.438Z,101011.14
2018-11-28T19:35:37.183Z,101006.87
2018-11-28T19:38:10.581Z,101002.52
2018-11-28T19:40:44.559Z,100994.48
2018-11-28T19:43:12.226Z,100995.44
2018-11-28T19:45:40.661Z,100997.58
2018-11-28T19:48:08.800Z,100998.45
2018-11-28T19:50:37.718Z,100998.61
2018-11-28T19:53:08.024Z,101014.14
2018-11-28T19:55:35.738Z,101016.73
2018-11-28T19:58:03.868Z,101021.88
2018-11-28T20:00:31.563Z,101015.30
2018-11-28T20:02:59.903Z,101008.48
2018-11-28T20:05:28.994Z,101013.73
2018-11-28T20:07:57.431Z,101006.03
2018-11-28T20:10:26.464Z,101003.50
2018-11-28T20:12:54.556Z,101014.67
2018-11-28T20:15:25.203Z,101014.23
2018-11-28T20:17:53.070Z,101010.44
2018-11-28T20:20:21.325Z,101005.72
2018-11-28T20:22:49.677Z,101007.11
2018-11-28T20:25:20.622Z,101007.96
2018-11-28T20:27:54.721Z,101008.89
2018-11-28T20:30:29.925Z,101002.95
2018-11-28T20:32:58.660Z,100999.11
2018-11-28T20:35:26.968Z,100997.88
2018-11-28T20:37:54.720Z,100991.81
2018-11-28T20:40:24.369Z,100999.09
2018-11-28T20:42:55.118Z,101001.70
2018-11-28T20:45:22.910Z,100999.53
2018-11-28T20:47:52.087Z,101003.37
2018-11-28T20:50:30.141Z,101000.76
2018-11-28T20:53:15.262Z,100997.33
2018-11-28T20:55:43.393Z,100996.44
2018-11-28T20:58:11.737Z,100989.58
2018-11-28T21:00:39.422Z,100991.59
2018-11-28T21:03:08.454Z,100990.29
2018-11-28T21:05:36.357Z,100994.21
2018-11-28T21:08:06.281Z,100999.71
2018-11-28T21:10:36.879Z,100990.72
2018-11-28T21:13:06.709Z,100988.20
2018-11-28T21:15:34.450Z,100990.21
2018-11-28T21:18:02.223Z,100978.16
2018-11-28T21:20:29.936Z,100972.54
2018-11-28T21:22:59.716Z,100973.31
2018-11-28T21:25:27.371Z,100975.28
2018-11-28T21:27:55.051Z,100974.05
2018-11-28T21:30:22.768Z,100978.19
2018-11-28T21:32:53.217Z,100978.51
2018-11-28T21:35:25.009Z,100975.06
2018-11-28T21:37:52.736Z,100972.08
2018-11-28T21:40:20.366Z,100965.55
2018-11-28T21:42:48.023Z,100968.94
2018-11-28T21:45:17.403Z,100971.14
2018-11-28T21:47:45.136Z,100971.22
2018-11-28T21:50:15.397Z,100964.78
2018-11-28T21:52:44.133Z,100967.02
2018-11-28T21:55:14.993Z,100969.86
2018-11-28T21:57:42.837Z,100967.80
2018-11-28T22:00:14.757Z,100967.85
2018-11-28T22:02:43.265Z,100969.17
2018-11-28T22:05:12.511Z,100965.72
2018-11-28T22:07:40.246Z,100963.94
2018-11-28T22:10:18.502Z,100968.98
2018-11-28T22:12:46.276Z,100968.29
2018-11-28T22:15:15.783Z,100972.52
2018-11-28T22:17:49.883Z,100972.69
2018-11-28T22:20:18.521Z,100967.98
2018-11-28T22:22:46.234Z,100965.98
2018-11-28T22:25:17.155Z,100965.41
2018-11-28T22:27:44.806Z,100961.67
2018-11-28T22:30:14.241Z,100958.27
2018-11-28T22:32:42.057Z,100942.88
2018-11-28T22:35:10.422Z,100935.14
2018-11-28T22:37:38.129Z,100927.84
2018-11-28T22:40:17.567Z,100934.83
2018-11-28T22:42:45.238Z,100940.89
2018-11-28T22:45:18.045Z,100938.84
2018-11-28T22:47:46.526Z,100932.39
2018-11-28T22:50:14.424Z,100932.86
2018-11-28T22:52:42.142Z,100931.23
2018-11-28T22:55:13.124Z,100927.84
2018-11-28T22:57:40.774Z,100930.02
2018-11-28T23:00:31.175Z,100936.02
2018-11-28T23:03:04.689Z,100928.95
2018-11-28T23:06:03.611Z,100916.42
2018-11-28T23:08:31.374Z,100914.86
2018-11-28T23:10:59.053Z,100919.58
2018-11-28T23:13:27.348Z,100924.75
2018-11-28T23:15:55.086Z,100924.75
2018-11-28T23:18:22.722Z,100925.22
2018-11-28T23:20:50.374Z,100921.83
2018-11-28T23:23:18.992Z,100918.83
2018-11-28T23:25:46.683Z,100922.73
2018-11-28T23:28:15.141Z,100920.10
2018-11-28T23:30:42.865Z,100909.81
2018-11-28T23:33:15.854Z,100909.28
2018-11-28T23:35:38.300Z,100904.50
2018-11-28T23:38:06.881Z,100914.44
2018-11-28T23:40:35.160Z,100917.09
2018-11-28T23:43:03.282Z,100910.30
2018-11-28T23:45:31.886Z,100894.81
2018-11-28T23:47:59.574Z,100890.59
2018-11-28T23:50:27.322Z,100898.31
2018-11-28T23:52:55.695Z,100893.36
2018-11-28T23:55:27.378Z,100883.92
2018-11-28T23:57:55.546Z,100878.80
